createdAt,value
2017-11-23T00:00:37.210Z,7.03
2017-11-23T00:03:05.933Z,5.25
2017-11-23T00:05:35.540Z,7.10
2017-11-23T00:08:04.290Z,4.85
2017-11-23T00:10:33.070Z,5.35
2017-11-23T00:13:01.791Z,5.45
2017-11-23T00:15:31.408Z,7.45
2017-11-23T00:17:59.869Z,10.27
2017-11-23T00:20:28.115Z,7.37
2017-11-23T00:22:56.574Z,5.30
2017-11-23T00:25:25.035Z,6.60
2017-11-23T00:27:53.495Z,4.23
2017-11-23T00:30:22.261Z,4.30
2017-11-23T00:32:51.705Z,5.40
2017-11-23T00:35:21.335Z,9.57
2017-11-23T00:37:50.118Z,4.25
2017-11-23T00:40:18.569Z,5.50
2017-11-23T00:42:47.282Z,5.57
2017-11-23T00:45:15.731Z,3.80
2017-11-23T00:47:44.932Z,6.77
2017-11-23T00:50:14.137Z,4.23
2017-11-23T00:52:42.569Z,8.53
2017-11-23T00:55:11.800Z,4.17
2017-11-23T00:57:40.992Z,4.60
2017-11-23T01:00:09.885Z,4.50
2017-11-23T01:02:39.081Z,4.23
2017-11-23T01:05:08.307Z,5.47
2017-11-23T01:07:36.735Z,3.63
2017-11-23T01:10:05.223Z,5.03
2017-11-23T01:12:33.662Z,4.43
2017-11-23T01:15:03.056Z,4.93
2017-11-23T01:17:31.492Z,5.20
2017-11-23T01:20:00.013Z,3.60
2017-11-23T01:22:34.740Z,4.77
2017-11-23T01:25:03.948Z,5.87
2017-11-23T01:27:33.149Z,4.90
2017-11-23T01:30:01.580Z,5.70
2017-11-23T01:32:30.032Z,5.17
2017-11-23T01:34:58.460Z,6.20
2017-11-23T01:37:26.952Z,4.50
2017-11-23T01:39:55.208Z,4.83
2017-11-23T01:42:23.634Z,5.70
2017-11-23T01:44:52.845Z,6.83
2017-11-23T01:47:21.269Z,6.40
2017-11-23T01:49:49.844Z,6.13
2017-11-23T01:52:18.536Z,4.10
2017-11-23T01:54:47.005Z,3.60
2017-11-23T01:57:15.236Z,6.23
2017-11-23T01:59:43.586Z,5.03
2017-11-23T02:02:12.036Z,4.60
2017-11-23T02:04:40.640Z,7.07
2017-11-23T02:07:09.069Z,6.17
2017-11-23T02:09:37.596Z,3.78
2017-11-23T02:12:05.863Z,5.77
2017-11-23T02:14:34.098Z,4.13
2017-11-23T02:17:03.337Z,4.43
2017-11-23T02:19:31.971Z,4.93
2017-11-23T02:22:00.072Z,5.23
2017-11-23T02:24:28.322Z,7.33
2017-11-23T02:26:57.429Z,4.63
2017-11-23T02:29:26.101Z,4.53
2017-11-23T02:31:54.335Z,5.30
2017-11-23T02:34:22.451Z,4.53
2017-11-23T02:36:50.357Z,6.13
2017-11-23T02:39:18.477Z,3.77
2017-11-23T02:41:46.571Z,4.10
2017-11-23T02:44:14.797Z,4.37
2017-11-23T02:46:43.487Z,4.27
2017-11-23T02:49:11.413Z,7.97
2017-11-23T02:51:40.012Z,3.70
2017-11-23T02:54:08.073Z,3.67
2017-11-23T02:56:36.937Z,3.80
2017-11-23T02:59:05.080Z,4.17
2017-11-23T03:01:33.206Z,5.40
2017-11-23T03:04:01.811Z,5.83
2017-11-23T03:06:30.674Z,7.03
2017-11-23T03:08:58.825Z,5.60
2017-11-23T03:11:27.322Z,3.83
2017-11-23T03:13:55.750Z,3.63
2017-11-23T03:16:24.204Z,4.60
2017-11-23T03:18:52.991Z,3.70
2017-11-23T03:21:21.432Z,4.20
2017-11-23T03:23:49.873Z,5.30
2017-11-23T03:26:19.069Z,4.47
2017-11-23T03:28:47.912Z,9.38
2017-11-23T03:31:16.275Z,4.30
2017-11-23T03:33:45.857Z,6.10
2017-11-23T03:36:14.374Z,3.67
2017-11-23T03:38:43.856Z,8.27
2017-11-23T03:41:12.228Z,7.68
2017-11-23T03:43:40.292Z,7.85
2017-11-23T03:46:08.326Z,4.90
2017-11-23T03:48:37.139Z,5.87
2017-11-23T03:51:05.824Z,5.90
2017-11-23T03:53:34.528Z,8.70
2017-11-23T03:56:03.228Z,5.68
2017-11-23T03:58:31.938Z,5.65
2017-11-23T04:01:00.334Z,4.68
2017-11-23T04:03:28.700Z,5.55
2017-11-23T04:05:57.849Z,5.00
2017-11-23T04:08:26.549Z,4.05
2017-11-23T04:10:55.276Z,8.82
2017-11-23T04:13:24.737Z,3.90
2017-11-23T04:15:53.260Z,12.07
2017-11-23T04:18:22.729Z,7.82
2017-11-23T04:20:50.755Z,6.28
2017-11-23T04:23:19.477Z,5.07
2017-11-23T04:25:48.025Z,5.97
2017-11-23T04:28:16.297Z,4.53
2017-11-23T04:30:44.721Z,4.17
2017-11-23T04:33:13.934Z,7.80
2017-11-23T04:35:43.147Z,5.37
2017-11-23T04:38:11.255Z,4.50
2017-11-23T04:40:39.004Z,6.53
2017-11-23T04:43:06.789Z,5.47
2017-11-23T04:45:35.230Z,5.30
2017-11-23T04:48:03.333Z,5.50
2017-11-23T04:50:31.744Z,6.60
2017-11-23T04:53:00.177Z,5.27
2017-11-23T04:55:28.659Z,5.53
2017-11-23T04:57:57.113Z,5.60
2017-11-23T05:00:26.310Z,4.80
2017-11-23T05:02:55.572Z,6.43
2017-11-23T05:05:23.936Z,4.50
2017-11-23T05:07:52.364Z,7.20
2017-11-23T05:10:20.618Z,6.50
2017-11-23T05:12:48.845Z,7.80
2017-11-23T05:15:17.404Z,7.23
2017-11-23T05:17:45.644Z,6.37
2017-11-23T05:20:13.888Z,10.13
2017-11-23T05:22:42.333Z,7.50
2017-11-23T05:25:10.763Z,7.30
2017-11-23T05:27:40.131Z,8.20
2017-11-23T05:30:09.436Z,11.27
2017-11-23T05:32:38.324Z,10.77
2017-11-23T05:35:07.336Z,14.20
2017-11-23T05:37:35.824Z,15.50
2017-11-23T05:40:04.280Z,12.23
2017-11-23T05:42:33.556Z,10.00
2017-11-23T05:45:01.989Z,7.70
2017-11-23T05:47:30.448Z,8.73
2017-11-23T05:49:59.745Z,7.90
2017-11-23T05:52:28.960Z,7.47
2017-11-23T05:54:58.149Z,5.80
2017-11-23T05:57:27.353Z,6.60
2017-11-23T05:59:56.560Z,11.07
2017-11-23T06:02:25.007Z,12.23
2017-11-23T06:04:53.460Z,21.07
2017-11-23T06:07:22.205Z,14.10
2017-11-23T06:09:51.433Z,14.63
2017-11-23T06:12:20.805Z,12.73
2017-11-23T06:14:50.021Z,15.70
2017-11-23T06:17:18.452Z,17.27
2017-11-23T06:19:46.901Z,15.67
2017-11-23T06:22:15.503Z,16.10
2017-11-23T06:24:43.961Z,16.17
2017-11-23T06:27:12.385Z,15.23
2017-11-23T06:29:40.857Z,15.93
2017-11-23T06:32:09.304Z,9.47
2017-11-23T06:34:37.735Z,4.37
2017-11-23T06:37:06.194Z,3.63
2017-11-23T06:39:34.833Z,7.00
2017-11-23T06:42:03.535Z,6.87
2017-11-23T06:44:32.273Z,6.85
2017-11-23T06:47:00.975Z,7.35
2017-11-23T06:49:29.410Z,7.40
2017-11-23T06:51:57.868Z,7.97
2017-11-23T06:54:26.572Z,5.78
2017-11-23T06:56:55.021Z,4.90
2017-11-23T06:59:23.721Z,10.30
2017-11-23T07:01:52.438Z,7.93
2017-11-23T07:04:21.116Z,8.65
2017-11-23T07:06:49.720Z,7.47
2017-11-23T07:09:18.153Z,6.43
2017-11-23T07:11:47.368Z,7.83
2017-11-23T07:14:16.094Z,7.93
2017-11-23T07:16:44.552Z,16.50
2017-11-23T07:19:13.232Z,9.48
2017-11-23T07:21:41.945Z,7.43
2017-11-23T07:24:10.429Z,6.30
2017-11-23T07:26:38.858Z,6.83
2017-11-23T07:29:08.053Z,6.20
2017-11-23T07:31:36.525Z,7.33
2017-11-23T07:34:04.964Z,8.17
2017-11-23T07:36:34.317Z,6.97
2017-11-23T07:39:02.769Z,7.10
2017-11-23T07:41:31.187Z,4.70
2017-11-23T07:44:00.392Z,8.67
2017-11-23T07:46:29.588Z,7.13
2017-11-23T07:48:58.804Z,4.97
2017-11-23T07:51:27.229Z,8.23
2017-11-23T07:53:55.685Z,6.20
2017-11-23T07:56:24.272Z,4.67
2017-11-23T07:58:52.710Z,6.60
2017-11-23T08:01:21.196Z,5.00
2017-11-23T08:03:50.401Z,4.47
2017-11-23T08:06:19.698Z,5.80
2017-11-23T08:08:48.924Z,5.17
2017-11-23T08:11:17.368Z,5.83
2017-11-23T08:13:46.580Z,5.07
2017-11-23T08:16:15.264Z,6.30
2017-11-23T08:18:43.366Z,8.53
2017-11-23T08:21:12.169Z,5.03
2017-11-23T08:23:40.429Z,9.53
2017-11-23T08:26:08.948Z,7.23
2017-11-23T08:28:37.437Z,7.03
2017-11-23T08:31:05.881Z,5.20
2017-11-23T08:33:34.320Z,5.00
2017-11-23T08:36:02.769Z,5.47
2017-11-23T08:38:31.187Z,4.97
2017-11-23T08:40:59.676Z,4.70
2017-11-23T08:43:28.897Z,5.07
2017-11-23T08:45:58.296Z,5.93
2017-11-23T08:48:27.522Z,4.90
2017-11-23T08:50:55.969Z,4.13
2017-11-23T08:53:25.175Z,4.63
2017-11-23T08:55:54.369Z,6.87
2017-11-23T08:58:23.601Z,7.77
2017-11-23T09:00:52.140Z,7.20
2017-11-23T09:03:21.356Z,4.90
2017-11-23T09:05:50.560Z,5.03
2017-11-23T09:08:19.893Z,5.90
2017-11-23T09:10:48.329Z,4.83
2017-11-23T09:13:17.548Z,5.23
2017-11-23T09:15:46.740Z,4.50
2017-11-23T09:18:16.005Z,5.30
2017-11-23T09:20:44.456Z,4.67
2017-11-23T09:23:12.901Z,4.33
2017-11-23T09:25:42.081Z,4.37
2017-11-23T09:28:11.308Z,6.90
2017-11-23T09:30:40.184Z,4.30
2017-11-23T09:33:09.568Z,5.67
2017-11-23T09:35:38.064Z,4.50
2017-11-23T09:38:07.368Z,8.10
2017-11-23T09:40:36.578Z,8.80
2017-11-23T09:43:05.761Z,4.20
2017-11-23T09:45:34.261Z,6.37
2017-11-23T09:48:03.455Z,4.97
2017-11-23T09:50:32.644Z,6.17
2017-11-23T09:53:02.071Z,6.00
2017-11-23T09:55:30.533Z,5.00
2017-11-23T09:57:59.757Z,5.23
2017-11-23T10:00:28.974Z,5.03
2017-11-23T10:02:57.423Z,5.83
2017-11-23T10:05:26.616Z,6.33
2017-11-23T10:07:55.098Z,5.53
2017-11-23T10:10:24.301Z,6.73
2017-11-23T10:12:53.499Z,6.73
2017-11-23T10:15:23.717Z,5.63
2017-11-23T10:17:52.210Z,8.80
2017-11-23T10:20:21.429Z,4.93
2017-11-23T10:22:50.074Z,5.17
2017-11-23T10:25:19.272Z,6.30
2017-11-23T10:27:47.774Z,6.00
2017-11-23T10:30:16.995Z,4.43
2017-11-23T10:32:45.425Z,6.37
2017-11-23T10:35:13.925Z,4.97
2017-11-23T10:37:45.243Z,6.50
2017-11-23T10:40:13.729Z,4.20
2017-11-23T10:42:42.171Z,4.97
2017-11-23T10:45:10.599Z,5.90
2017-11-23T10:47:38.378Z,4.50
2017-11-23T10:50:06.808Z,4.30
2017-11-23T10:52:35.249Z,5.93
2017-11-23T10:55:04.439Z,4.17
2017-11-23T10:57:32.872Z,4.50
2017-11-23T11:00:01.314Z,6.03
2017-11-23T11:02:29.769Z,4.53
2017-11-23T11:04:58.196Z,4.80
2017-11-23T11:07:27.376Z,4.67
2017-11-23T11:09:55.837Z,6.73
2017-11-23T11:12:24.368Z,6.50
2017-11-23T11:14:52.997Z,6.37
2017-11-23T11:17:21.429Z,5.40
2017-11-23T11:19:50.632Z,4.70
2017-11-23T11:22:19.853Z,4.50
2017-11-23T11:24:48.305Z,4.07
2017-11-23T11:27:17.546Z,6.27
2017-11-23T11:29:46.263Z,8.87
2017-11-23T11:32:14.692Z,5.23
2017-11-23T11:34:43.187Z,5.17
2017-11-23T11:37:11.624Z,3.70
2017-11-23T11:39:40.067Z,4.10
2017-11-23T11:42:08.558Z,5.10
2017-11-23T11:44:36.995Z,4.30
2017-11-23T11:47:05.092Z,3.77
2017-11-23T11:49:33.671Z,6.10
2017-11-23T11:52:02.372Z,3.77
2017-11-23T11:54:30.843Z,3.37
2017-11-23T11:56:59.297Z,9.60
2017-11-23T11:59:28.592Z,4.10
2017-11-23T12:01:57.799Z,4.10
2017-11-23T12:04:26.809Z,3.37
2017-11-23T12:06:55.069Z,3.80
2017-11-23T12:09:24.325Z,7.97
2017-11-23T12:11:52.772Z,3.10
2017-11-23T12:14:27.328Z,5.17
2017-11-23T12:17:01.886Z,3.30
2017-11-23T12:19:41.370Z,3.63
2017-11-23T12:22:33.830Z,3.60
2017-11-23T12:25:02.461Z,5.53
2017-11-23T12:27:42.699Z,5.50
2017-11-23T12:30:12.157Z,3.93
2017-11-23T12:32:41.276Z,3.50
2017-11-23T12:35:09.724Z,3.30
2017-11-23T12:37:38.153Z,3.33
2017-11-23T12:40:06.612Z,5.97
2017-11-23T12:42:35.044Z,4.43
2017-11-23T12:45:03.457Z,6.27
2017-11-23T12:47:31.875Z,3.53
2017-11-23T12:50:00.330Z,3.73
2017-11-23T12:52:28.769Z,4.13
2017-11-23T12:54:57.221Z,3.57
2017-11-23T12:57:25.684Z,5.33
2017-11-23T12:59:54.137Z,4.93
2017-11-23T13:02:23.517Z,6.10
2017-11-23T13:04:51.955Z,3.27
2017-11-23T13:07:20.526Z,6.30
2017-11-23T13:09:49.013Z,4.63
2017-11-23T13:12:17.553Z,5.00
2017-11-23T13:14:46.766Z,2.53
2017-11-23T13:17:15.212Z,4.70
2017-11-23T13:19:43.640Z,4.67
2017-11-23T13:22:12.092Z,3.33
2017-11-23T13:24:40.328Z,2.77
2017-11-23T13:27:08.788Z,4.50
2017-11-23T13:29:37.324Z,5.30
2017-11-23T13:32:05.769Z,3.57
2017-11-23T13:34:34.211Z,3.90
2017-11-23T13:37:02.724Z,3.40
2017-11-23T13:39:31.018Z,4.73
2017-11-23T13:41:59.448Z,3.00
2017-11-23T13:44:28.672Z,3.33
2017-11-23T13:46:57.177Z,4.23
2017-11-23T13:49:25.648Z,2.83
2017-11-23T13:51:53.900Z,3.40
2017-11-23T13:54:23.205Z,3.60
2017-11-23T13:56:52.416Z,5.10
2017-11-23T13:59:20.880Z,4.20
2017-11-23T14:01:50.076Z,7.63
2017-11-23T14:04:19.277Z,5.43
2017-11-23T14:06:48.626Z,6.00
2017-11-23T14:09:16.800Z,2.37
2017-11-23T14:11:45.256Z,2.90
2017-11-23T14:14:13.771Z,5.13
2017-11-23T14:16:42.217Z,2.57
2017-11-23T14:19:10.809Z,2.90
2017-11-23T14:21:39.248Z,3.90
2017-11-23T14:24:07.680Z,3.87
2017-11-23T14:26:36.130Z,3.17
2017-11-23T14:29:05.144Z,3.80
2017-11-23T14:31:33.608Z,3.00
2017-11-23T14:34:02.861Z,3.10
2017-11-23T14:36:31.285Z,2.77
2017-11-23T14:39:00.633Z,3.10
2017-11-23T14:41:29.165Z,3.90
2017-11-23T14:43:57.621Z,2.57
2017-11-23T14:46:26.048Z,3.20
2017-11-23T14:48:55.285Z,6.23
2017-11-23T14:51:23.709Z,5.20
2017-11-23T14:53:52.149Z,3.07
2017-11-23T14:56:20.600Z,2.37
2017-11-23T14:58:49.059Z,3.87
2017-11-23T15:01:18.332Z,6.40
2017-11-23T15:03:46.882Z,4.07
2017-11-23T15:06:15.316Z,2.57
2017-11-23T15:08:43.764Z,3.30
2017-11-23T15:11:12.196Z,4.20
2017-11-23T15:13:41.385Z,4.70
2017-11-23T15:16:09.845Z,4.20
2017-11-23T15:18:38.400Z,4.73
2017-11-23T15:21:06.832Z,3.53
2017-11-23T15:23:36.046Z,3.00
2017-11-23T15:26:05.254Z,3.17
2017-11-23T15:28:34.466Z,7.37
2017-11-23T15:31:02.899Z,3.40
2017-11-23T15:33:31.339Z,3.33
2017-11-23T15:36:00.861Z,3.27
2017-11-23T15:38:30.231Z,2.97
2017-11-23T15:41:00.262Z,7.73
2017-11-23T15:43:30.495Z,3.93
2017-11-23T15:45:59.715Z,4.90
2017-11-23T15:48:29.076Z,5.07
2017-11-23T15:50:58.257Z,4.80
2017-11-23T15:53:26.796Z,4.30
2017-11-23T15:55:55.226Z,6.10
2017-11-23T15:58:24.448Z,4.20
2017-11-23T16:00:52.878Z,6.50
2017-11-23T16:03:21.311Z,6.03
2017-11-23T16:05:49.773Z,8.13
2017-11-23T16:08:18.328Z,4.10
2017-11-23T16:10:46.771Z,5.13
2017-11-23T16:13:15.253Z,7.33
2017-11-23T16:15:43.705Z,6.83
2017-11-23T16:18:12.718Z,4.30
2017-11-23T16:20:41.171Z,4.37
2017-11-23T16:23:10.380Z,6.50
2017-11-23T16:25:39.580Z,6.20
2017-11-23T16:28:07.885Z,5.77
2017-11-23T16:30:36.148Z,7.60
2017-11-23T16:33:04.399Z,4.80
2017-11-23T16:35:33.421Z,5.80
2017-11-23T16:38:01.708Z,6.77
2017-11-23T16:40:44.864Z,4.33
2017-11-23T16:43:15.711Z,9.07
2017-11-23T16:46:01.802Z,4.97
2017-11-23T16:48:49.728Z,10.33
2017-11-23T16:51:23.520Z,4.77
2017-11-23T16:53:57.449Z,7.53
2017-11-23T16:56:45.489Z,7.77
2017-11-23T16:59:34.600Z,12.87
2017-11-23T17:02:09.293Z,14.47
2017-11-23T17:04:41.027Z,13.30
2017-11-23T17:07:24.961Z,15.90
2017-11-23T17:10:09.062Z,13.50
2017-11-23T17:12:43.055Z,8.63
2017-11-23T17:15:12.942Z,10.53
2017-11-23T17:17:46.743Z,11.77
2017-11-23T17:20:15.204Z,15.33
2017-11-23T17:22:44.401Z,11.60
2017-11-23T17:25:13.643Z,10.23
2017-11-23T17:27:42.120Z,5.43
2017-11-23T17:30:10.684Z,9.23
2017-11-23T17:32:39.212Z,11.93
2017-11-23T17:35:07.652Z,19.80
2017-11-23T17:37:36.098Z,22.30
2017-11-23T17:40:04.661Z,16.83
2017-11-23T17:42:33.119Z,13.10
2017-11-23T17:45:01.392Z,11.20
2017-11-23T17:47:29.834Z,11.20
2017-11-23T17:49:59.046Z,8.60
2017-11-23T17:52:28.293Z,11.30
2017-11-23T17:54:56.732Z,10.63
2017-11-23T17:57:25.986Z,15.80
2017-11-23T17:59:54.420Z,15.77
2017-11-23T18:02:22.871Z,13.93
2017-11-23T18:04:52.113Z,16.10
2017-11-23T18:07:20.590Z,7.30
2017-11-23T18:09:48.752Z,9.70
2017-11-23T18:12:17.948Z,10.03
2017-11-23T18:14:47.135Z,8.90
2017-11-23T18:17:16.393Z,8.30
2017-11-23T18:19:44.858Z,13.17
2017-11-23T18:22:13.318Z,10.93
2017-11-23T18:24:42.720Z,10.80
2017-11-23T18:27:11.190Z,9.73
2017-11-23T18:29:40.426Z,8.40
2017-11-23T18:32:08.882Z,6.53
2017-11-23T18:34:38.093Z,8.53
2017-11-23T18:37:06.543Z,9.43
2017-11-23T18:39:34.982Z,11.63
2017-11-23T18:42:03.504Z,11.50
2017-11-23T18:44:32.753Z,11.97
2017-11-23T18:47:01.204Z,10.70
2017-11-23T18:49:30.417Z,12.70
2017-11-23T18:51:58.901Z,15.00
2017-11-23T18:54:27.365Z,10.87
2017-11-23T18:56:56.579Z,8.50
2017-11-23T18:59:25.074Z,7.73
2017-11-23T19:01:53.524Z,7.07
2017-11-23T19:04:22.761Z,5.87
2017-11-23T19:06:51.192Z,8.53
2017-11-23T19:09:19.665Z,9.30
2017-11-23T19:11:48.116Z,11.00
2017-11-23T19:14:16.538Z,13.70
2017-11-23T19:16:45.032Z,7.93
2017-11-23T19:19:14.232Z,9.57
2017-11-23T19:21:43.313Z,10.43
2017-11-23T19:24:11.744Z,7.67
2017-11-23T19:26:40.201Z,15.10
2017-11-23T19:29:09.392Z,7.63
2017-11-23T19:31:38.632Z,9.10
2017-11-23T19:34:07.090Z,13.43
2017-11-23T19:36:35.552Z,13.87
2017-11-23T19:39:04.113Z,11.50
2017-11-23T19:41:32.595Z,7.73
2017-11-23T19:44:01.080Z,6.97
2017-11-23T19:46:29.582Z,12.90
2017-11-23T19:48:59.622Z,11.97
2017-11-23T19:51:28.081Z,10.90
2017-11-23T19:53:57.342Z,10.73
2017-11-23T19:56:25.979Z,12.03
2017-11-23T19:58:55.216Z,13.77
2017-11-23T20:01:23.671Z,9.90
2017-11-23T20:03:52.133Z,13.23
2017-11-23T20:06:21.424Z,12.40
2017-11-23T20:08:49.912Z,11.77
2017-11-23T20:11:18.369Z,13.00
2017-11-23T20:13:46.832Z,7.80
2017-11-23T20:16:15.376Z,8.67
2017-11-23T20:18:44.581Z,8.83
2017-11-23T20:21:13.905Z,8.03
2017-11-23T20:23:42.339Z,12.83
2017-11-23T20:26:10.843Z,13.40
2017-11-23T20:28:40.067Z,9.40
2017-11-23T20:31:08.503Z,9.30
2017-11-23T20:33:37.054Z,21.70
2017-11-23T20:36:05.567Z,11.83
2017-11-23T20:38:34.013Z,8.73
2017-11-23T20:41:02.494Z,9.00
2017-11-23T20:43:30.964Z,9.20
2017-11-23T20:45:59.422Z,9.00
2017-11-23T20:48:28.629Z,8.50
2017-11-23T20:50:57.150Z,8.40
2017-11-23T20:53:25.599Z,8.83
2017-11-23T20:55:54.075Z,7.60
2017-11-23T20:58:23.280Z,8.10
2017-11-23T21:00:51.751Z,7.93
2017-11-23T21:03:21.013Z,6.27
2017-11-23T21:05:50.082Z,10.07
2017-11-23T21:08:18.518Z,8.63
2017-11-23T21:10:47.721Z,9.03
2017-11-23T21:13:17.034Z,10.57
2017-11-23T21:15:45.502Z,7.60
2017-11-23T21:18:14.720Z,8.60
2017-11-23T21:20:43.185Z,6.87
2017-11-23T21:23:12.398Z,7.10
2017-11-23T21:25:41.608Z,9.70
2017-11-23T21:28:10.060Z,11.93
2017-11-23T21:30:39.307Z,7.43
2017-11-23T21:33:07.776Z,9.87
2017-11-23T21:35:36.278Z,8.23
2017-11-23T21:38:04.740Z,6.70
2017-11-23T21:40:33.194Z,8.10
2017-11-23T21:43:02.416Z,6.03
2017-11-23T21:45:30.875Z,5.97
2017-11-23T21:48:00.112Z,7.40
2017-11-23T21:50:28.551Z,7.73
2017-11-23T21:52:57.792Z,7.00
2017-11-23T21:55:26.212Z,6.80
2017-11-23T21:57:54.641Z,9.53
2017-11-23T22:00:23.077Z,6.40
2017-11-23T22:02:51.605Z,12.33
2017-11-23T22:05:20.048Z,8.23
2017-11-23T22:07:48.520Z,5.93
2017-11-23T22:10:16.955Z,7.83
2017-11-23T22:12:45.476Z,6.83
2017-11-23T22:15:13.939Z,6.23
2017-11-23T22:17:42.364Z,5.63
2017-11-23T22:20:10.814Z,9.30
2017-11-23T22:22:39.275Z,6.23
2017-11-23T22:25:07.745Z,5.83
2017-11-23T22:27:36.217Z,6.00
2017-11-23T22:30:05.413Z,9.70
2017-11-23T22:32:34.660Z,6.40
2017-11-23T22:35:03.121Z,6.13
2017-11-23T22:37:31.553Z,5.93
2017-11-23T22:40:00.051Z,5.20
2017-11-23T22:42:29.400Z,6.57
2017-11-23T22:44:57.837Z,6.30
2017-11-23T22:47:27.062Z,6.20
2017-11-23T22:49:55.487Z,5.93
2017-11-23T22:52:23.953Z,9.77
2017-11-23T22:54:52.403Z,5.83
2017-11-23T22:57:20.853Z,5.97
2017-11-23T22:59:50.070Z,7.00
2017-11-23T23:02:19.313Z,7.60
2017-11-23T23:04:47.796Z,5.13
2017-11-23T23:07:16.228Z,5.40
2017-11-23T23:09:45.454Z,6.90
2017-11-23T23:12:13.909Z,4.97
2017-11-23T23:14:43.216Z,5.60
2017-11-23T23:17:12.421Z,5.43
2017-11-23T23:19:41.625Z,5.17
2017-11-23T23:22:10.092Z,5.80
2017-11-23T23:24:39.309Z,6.63
2017-11-23T23:27:07.776Z,11.40
2017-11-23T23:29:36.994Z,7.40
2017-11-23T23:32:05.429Z,10.63
2017-11-23T23:34:33.897Z,4.93
2017-11-23T23:37:02.344Z,9.00
2017-11-23T23:39:30.792Z,7.53
2017-11-23T23:42:00.006Z,4.63
2017-11-23T23:44:29.225Z,8.97
2017-11-23T23:46:57.653Z,5.90
2017-11-23T23:49:26.101Z,4.80
2017-11-23T23:51:54.536Z,5.30
2017-11-23T23:54:23.537Z,4.93
2017-11-23T23:56:52.953Z,6.00
2017-11-23T23:59:22.140Z,4.80
